Time;durP1;ratioP1;P1;durP2;ratioP2;P2;SDS_P1;SDS_P2;PMS_P1;PMS_P2;Temp;Humidity;BMP_temperature;BMP_pressure;BME280_temperature;BME280_humidity;BME280_pressure;Samples;Min_cycle;Max_cycle;Signal;HPM_P1;HPM_P2
2022/12/25 00:01:17;;;;;;;35.42;21.60;;;;;;;6.48;95.53;101220.53;4169763;28;20295;-61
2022/12/25 00:03:19;;;;;;;;;;;;;;;6.45;95.25;101218.13;4170563;28;20295;-61
2022/12/25 00:05:22;;;;;;;67.57;28.30;;;;;;;6.43;94.99;101227.31;4170871;28;24990;-62
2022/12/25 00:07:29;;;;;;;34.67;21.45;;;;;;;6.41;95.37;101221.22;4172441;28;20710;-61
2022/12/25 00:09:33;;;;;;;34.90;21.67;;;;;;;6.40;95.38;101216.88;4172719;28;20449;-61
2022/12/25 00:11:36;;;;;;;37.30;21.95;;;;;;;6.37;94.89;101225.19;4173888;28;20323;-61
2022/12/25 00:13:38;;;;;;;38.83;22.33;;;;;;;6.34;94.71;101222.78;4173010;28;20283;-61
2022/12/25 00:15:41;;;;;;;38.40;22.02;;;;;;;6.29;94.77;101217.81;4172270;28;20318;-61
2022/12/25 00:17:43;;;;;;;38.13;22.23;;;;;;;6.25;94.67;101219.94;4173296;28;20283;-61
2022/12/25 00:19:46;;;;;;;36.67;21.98;;;;;;;6.22;95.00;101230.06;4172293;28;20235;-61
2022/12/25 00:21:49;;;;;;;37.10;22.70;;;;;;;6.18;95.19;101220.63;4172003;28;20311;-61
2022/12/25 00:23:55;;;;;;;36.47;22.63;;;;;;;6.16;94.72;101222.56;4172993;28;20275;-61
2022/12/25 00:25:58;;;;;;;34.85;23.95;;;;;;;6.09;94.62;101223.13;4171126;28;20662;-61
2022/12/25 00:28:01;;;;;;;34.50;21.93;;;;;;;6.04;94.63;101220.00;4176159;28;20661;-61
2022/12/25 00:30:04;;;;;;;33.00;21.90;;;;;;;6.01;95.06;101231.00;4171663;28;20323;-61
2022/12/25 00:32:06;;;;;;;35.05;21.83;;;;;;;5.98;95.12;101233.94;4172757;28;20328;-61
2022/12/25 00:34:08;;;;;;;34.05;22.30;;;;;;;5.89;95.02;101229.34;4173088;28;20283;-61
2022/12/25 00:36:11;;;;;;;;;;;;;;;5.91;95.12;101243.50;4171707;28;20673;-61
2022/12/25 00:38:14;;;;;;;;;;;;;;;5.88;95.24;101238.41;4173692;28;21029;-62
2022/12/25 00:40:17;;;;;;;60.88;26.92;;;;;;;5.86;95.10;101235.00;4186604;28;25002;-62
2022/12/25 00:42:19;;;;;;;;;;;;;;;5.84;95.29;101242.31;4173280;28;20277;-62
2022/12/25 00:44:21;;;;;;;;;;;;;;;5.83;95.09;101246.84;4172316;28;19933;-62
2022/12/25 00:46:23;;;;;;;65.50;28.05;;;;;;;5.82;95.30;101246.97;4170978;28;24566;-62
2022/12/25 00:48:25;;;;;;;35.17;21.63;;;;;;;5.81;95.16;101245.28;4172923;28;20287;-62
2022/12/25 00:50:27;;;;;;;;;;;;;;;5.78;95.17;101246.38;4172304;28;20322;-63
2022/12/25 00:52:29;;;;;;;60.90;27.10;;;;;;;5.75;95.16;101249.31;4171620;28;24528;-62
2022/12/25 00:54:32;;;;;;;35.38;21.55;;;;;;;5.72;94.95;101253.13;4171512;28;20719;-62
2022/12/25 00:56:35;;;;;;;33.55;21.10;;;;;;;5.69;95.00;101271.28;4172237;28;20637;-62
2022/12/25 00:58:37;;;;;;;;;;;;;;;5.63;94.51;101271.81;4172621;28;20294;-62
2022/12/25 01:00:40;;;;;;;50.85;24.75;;;;;;;5.57;94.55;101273.22;4170381;28;25048;-62
2022/12/25 01:02:42;;;;;;;;;;;;;;;5.55;94.87;101278.69;4172765;28;20330;-61
2022/12/25 01:04:44;;;;;;;46.20;23.77;;;;;;;5.52;94.61;101275.44;4168939;28;24528;-62
2022/12/25 01:06:46;;;;;;;;;;;;;;;5.52;94.88;101283.47;4172117;28;20310;-62
2022/12/25 01:11:05;;;;;;;;;;;;;;;5.45;94.48;101282.28;4186594;28;20030;-62
2022/12/25 01:13:08;;;;;;;31.30;20.30;;;;;;;5.43;94.66;101281.56;4170116;28;20036;-62
2022/12/25 01:15:11;;;;;;;;;;;;;;;5.39;94.61;101273.81;4170514;28;20744;-62
2022/12/25 01:17:13;;;;;;;;;;;;;;;5.34;94.46;101278.69;4171954;28;20012;-64
2022/12/25 01:19:15;;;;;;;;;;;;;;;5.32;94.67;101280.66;4171879;28;20019;-62
2022/12/25 01:21:19;;;;;;;30.23;20.73;;;;;;;5.33;94.90;101286.84;4172115;28;20418;-62
2022/12/25 01:23:21;;;;;;;;;;;;;;;5.31;94.80;101284.28;4172279;28;20282;-62
2022/12/25 01:25:23;;;;;;;32.25;19.88;;;;;;;5.31;94.93;101281.63;4170323;28;24560;-61
2022/12/25 01:27:26;;;;;;;;;;;;;;;5.30;94.49;101287.97;4173128;28;20279;-62
2022/12/25 01:29:29;;;;;;;;;;;;;;;5.28;94.70;101297.94;4171103;28;20019;-62
2022/12/25 01:31:31;;;;;;;;;;;;;;;5.27;94.43;101301.63;4172329;28;20381;-62
2022/12/25 01:33:33;;;;;;;31.75;19.95;;;;;;;5.23;94.49;101303.72;4171546;28;24528;-62
2022/12/25 01:35:35;;;;;;;;;;;;;;;5.23;94.17;101308.19;4170788;28;20689;-62
2022/12/25 01:37:37;;;;;;;;;;;;;;;5.19;94.09;101307.63;4173125;28;20015;-62
2022/12/25 01:39:39;;;;;;;42.75;22.55;;;;;;;5.17;94.05;101311.38;4169453;28;24557;-62
2022/12/25 01:41:41;;;;;;;;;;;;;;;5.14;94.08;101311.63;4172487;28;20688;-62
2022/12/25 01:43:56;;;;;;;;;;;;;;;5.12;94.46;101317.13;4172528;28;20019;-62
2022/12/25 01:46:02;;;;;;;;;;;;;;;5.12;94.56;101317.13;4171407;28;20530;-60
2022/12/25 01:48:06;;;;;;;;;;;;;;;5.10;94.13;101312.91;4172710;28;20037;-62
2022/12/25 01:50:08;;;;;;;;;;;;;;;5.08;94.09;101312.16;4171451;28;20016;-62
2022/12/25 01:52:12;;;;;;;;;;;;;;;5.04;93.93;101306.22;4172650;28;19944;-62
2022/12/25 01:54:14;;;;;;;;;;;;;;;5.00;93.99;101313.66;4171663;28;20335;-62
2022/12/25 01:56:16;;;;;;;;;;;;;;;4.97;94.00;101310.34;4171996;28;20028;-62
2022/12/25 01:58:18;;;;;;;41.17;22.10;;;;;;;4.94;94.16;101311.47;4170853;28;24560;-62
2022/12/25 02:00:20;;;;;;;;;;;;;;;4.91;94.05;101316.25;4170454;28;20322;-62
2022/12/25 02:02:24;;;;;;;;;;;;;;;4.86;93.85;101314.78;4187026;28;20008;-63
2022/12/25 02:04:37;;;;;;;;;;;;;;;4.86;94.25;101324.66;4171280;28;20016;-62
2022/12/25 02:06:39;;;;;;;;;;;;;;;4.85;93.80;101334.47;4171512;28;20019;-61
2022/12/25 02:08:41;;;;;;;;;;;;;;;4.84;93.94;101321.22;4172040;28;20569;-62
2022/12/25 02:10:43;;;;;;;;;;;;;;;4.82;93.88;101328.53;4172052;28;20447;-62
2022/12/25 02:12:44;;;;;;;;;;;;;;;4.76;93.64;101329.88;4172086;28;20015;-62
2022/12/25 02:14:46;;;;;;;;;;;;;;;4.73;93.56;101331.97;4171160;28;20008;-62
2022/12/25 02:16:48;;;;;;;;;;;;;;;4.72;94.06;101332.94;4171744;28;20023;-62
2022/12/25 02:18:52;;;;;;;;;;;;;;;4.70;93.76;101330.38;4171962;28;20020;-62
2022/12/25 02:21:02;;;;;;;;;;;;;;;4.67;93.79;101333.28;4170480;28;20465;-62
2022/12/25 02:23:08;;;;;;;;;;;;;;;4.64;93.85;101334.41;4171781;28;19931;-62
2022/12/25 02:25:13;;;;;;;;;;;;;;;4.64;93.92;101339.75;4170828;28;20019;-62
2022/12/25 02:27:17;;;;;;;;;;;;;;;4.63;93.98;101346.06;4171540;28;20008;-62
2022/12/25 02:29:21;;;;;;;;;;;;;;;4.64;94.18;101339.75;4171071;28;20016;-62
2022/12/25 02:31:26;;;;;;;;;;;;;;;4.64;94.27;101341.56;4171035;28;20016;-62
2022/12/25 02:35:52;;;;;;;;;;;;;;;4.56;93.63;101341.34;4170934;28;20059;-62
2022/12/25 02:37:55;;;;;;;;;;;;;;;4.50;93.33;101342.72;4171931;28;20474;-62
2022/12/25 02:39:57;;;;;;;;;;;;;;;4.45;93.16;101345.75;4170056;28;19995;-63
2022/12/25 02:42:00;;;;;;;;;;;;;;;4.40;93.24;101366.63;4172146;28;20019;-61
2022/12/25 03:07:22;;;;;;;;;;;;;;;4.24;93.86;101353.63;4153720;28;20015;-62
2022/12/25 03:11:43;;;;;;;;;;;;;;;4.22;93.63;101349.41;4171132;28;20413;-61
2022/12/25 03:13:48;;;;;;;;;;;;;;;4.23;94.13;101340.38;4170156;28;20019;-61
2022/12/25 03:18:12;;;;;;;;;;;;;;;4.21;93.82;101348.53;4170968;28;20003;-61
2022/12/25 03:27:12;;;;;;;;;;;;;;;4.03;92.24;101349.97;4171119;28;20433;-62
2022/12/25 03:31:10;;;;;;;;;;;;;;;3.97;91.60;101359.31;4170122;28;20015;-61
2022/12/25 03:31:38;;;;;;;;;;;;;;;3.91;91.87;101367.81;4177719;28;20011;-61
2022/12/25 03:36:13;;;;;;;;;;;;;;;3.84;92.05;101370.13;4169754;28;20047;-62
2022/12/25 04:36:44;;;;;;;;;;;;;;;2.83;90.20;101408.69;4142974;28;20483;-61
2022/12/25 04:38:46;;;;;;;;;;;;;;;2.82;89.76;101408.81;4173932;28;20008;-61
2022/12/25 04:40:49;;;;;;;;;;;;;;;2.77;89.41;101411.78;4172931;28;20016;-62
2022/12/25 04:42:51;;;;;;;;;;;;;;;2.73;89.38;101412.13;4173257;28;20028;-61
2022/12/25 04:44:53;;;;;;;;;;;;;;;2.68;89.21;101416.00;4172743;28;20015;-62
2022/12/25 04:46:55;;;;;;;;;;;;;;;2.66;89.15;101428.56;4172900;28;20008;-62
2022/12/25 04:48:57;;;;;;;;;;;;;;;2.62;88.75;101432.44;4172859;28;20457;-62
2022/12/25 04:51:09;;;;;;;;;;;;;;;2.61;89.11;101425.38;4171931;28;19925;-62
2022/12/25 04:53:11;;;;;;;;;;;;;;;2.65;89.89;101426.00;4173310;28;20003;-61
2022/12/25 04:55:13;;;;;;;;;;;;;;;2.74;90.84;101429.84;4171708;28;20020;-62
2022/12/25 04:57:16;;;;;;;;;;;;;;;2.80;90.65;101424.06;4172836;28;20014;-61
2022/12/25 04:59:18;;;;;;;;;;;;;;;2.82;90.97;101415.00;4171605;28;20031;-62
2022/12/25 05:01:20;;;;;;;;;;;;;;;2.86;90.95;101419.13;4172549;28;20015;-62
2022/12/25 05:03:23;;;;;;;;;;;;;;;2.80;89.95;101418.75;4172849;28;20016;-61
2022/12/25 05:05:25;;;;;;;;;;;;;;;2.72;89.31;101423.78;4171934;28;20019;-61
2022/12/25 05:07:28;;;;;;;;;;;;;;;2.63;88.89;101425.28;4179287;28;20011;-62
2022/12/25 05:09:30;;;;;;;;;;;;;;;2.64;89.82;101413.66;4172074;28;20027;-62
2022/12/25 05:11:31;;;;;;;;;;;;;;;2.62;89.40;101418.25;4173211;28;20368;-61
2022/12/25 05:13:35;;;;;;;;;;;;;;;2.59;89.09;101415.81;4172762;28;20015;-62
2022/12/25 05:15:39;;;;;;;;;;;;;;;2.53;88.86;101417.91;4171282;28;20012;-62
2022/12/25 05:17:41;;;;;;;;;;;;;;;2.45;88.71;101417.59;4173689;28;20077;-62
2022/12/25 05:19:43;;;;;;;;;;;;;;;2.38;88.29;101412.81;4172354;28;20106;-61
2022/12/25 05:21:45;;;;;;;;;;;;;;;2.30;88.10;101426.66;4174298;28;20029;-62
2022/12/25 05:23:49;;;;;;;;;;;;;;;2.25;88.14;101421.66;4172346;28;20008;-62
2022/12/25 05:25:51;;;;;;;;;;;;;;;2.23;88.44;101414.75;4171442;28;20043;-61
2022/12/25 05:27:52;;;;;;;;;;;;;;;2.21;88.48;101419.31;4172743;28;20015;-62
2022/12/25 05:29:56;;;;;;;;;;;;;;;2.25;89.18;101408.34;4171992;28;20446;-62
2022/12/25 05:31:58;;;;;;;;;;;;;;;2.24;88.86;101403.09;4171903;28;20028;-60
2022/12/25 05:34:00;;;;;;;;;;;;;;;2.19;88.34;101413.25;4170911;28;19967;-61
2022/12/25 05:36:02;;;;;;;;;;;;;;;2.10;88.11;101418.25;4170913;28;20356;-61
2022/12/25 05:38:04;;;;;;;;;;;;;;;2.06;88.21;101413.25;4172826;28;20466;-61
2022/12/25 05:40:07;;;;;;;;;;;;;;;2.08;89.11;101416.66;4178262;28;20470;-62
2022/12/25 05:42:09;;;;;;;;;;;;;;;2.04;89.03;101410.69;4172455;28;20365;-62
2022/12/25 05:44:11;;;;;;;;;;;;;;;2.01;89.40;101407.34;4171893;28;20455;-62
2022/12/25 05:46:14;;;;;;;;;;;;;;;2.02;89.64;101412.56;4170685;28;20027;-60
2022/12/25 05:48:16;;;;;;;;;;;;;;;2.02;90.18;101409.06;4173201;28;20015;-62
2022/12/25 05:50:18;;;;;;;;;;;;;;;1.97;89.77;101415.59;4169994;28;20063;-62
2022/12/25 05:52:20;;;;;;;;;;;;;;;1.97;90.02;101417.38;4172232;28;19921;-61
2022/12/25 05:54:22;;;;;;;;;;;;;;;1.93;89.87;101411.41;4170959;28;20003;-61
2022/12/25 05:56:24;;;;;;;;;;;;;;;2.06;91.31;101414.09;4171341;28;20031;-62
2022/12/25 05:58:26;;;;;;;;;;;;;;;2.21;92.20;101409.53;4171601;28;20361;-61
2022/12/25 06:00:28;;;;;;;;;;;;;;;2.29;92.06;101395.66;4169858;28;20414;-60
2022/12/25 06:02:31;;;;;;;;;;;;;;;2.37;92.48;101395.97;4171395;28;20359;-61
2022/12/25 06:04:33;;;;;;;;;;;;;;;2.43;92.26;101406.22;4171026;28;20023;-61
2022/12/25 06:06:35;;;;;;;;;;;;;;;2.36;91.08;101393.41;4171436;28;20435;-62
2022/12/25 06:08:37;;;;;;;;;;;;;;;2.31;90.69;101388.41;4171599;28;20052;-62
2022/12/25 06:10:39;;;;;;;;;;;;;;;2.26;90.52;101393.22;4171570;28;20020;-62
2022/12/25 06:12:41;;;;;;;;;;;;;;;2.27;90.66;101390.44;4171948;28;19924;-62
2022/12/25 06:14:43;;;;;;;;;;;;;;;2.25;90.16;101395.00;4171135;28;20008;-62
2022/12/25 06:16:45;;;;;;;;;;;;;;;2.21;89.79;101400.66;4171067;28;20042;-62
2022/12/25 06:18:50;;;;;;;;;;;;;;;2.14;89.98;101398.41;4171665;28;20393;-62
2022/12/25 06:20:52;;;;;;;;;;;;;;;2.13;90.60;101375.41;4171581;28;20023;-62
2022/12/25 06:22:54;;;;;;;;;;;;;;;2.17;90.39;101389.38;4171647;28;20036;-62
2022/12/25 06:24:56;;;;;;;;;;;;;;;2.14;90.27;101381.59;4170655;28;20011;-61
2022/12/25 06:26:58;;;;;;;;;;;;;;;2.11;90.54;101379.97;4171909;28;20024;-62
2022/12/25 06:29:00;;;;;;;;;;;;;;;2.15;90.82;101389.47;4171752;28;20015;-62
2022/12/25 06:31:05;;;;;;;;;;;;;;;2.14;90.54;101398.41;4172221;28;20015;-61
2022/12/25 06:33:07;;;;;;;;;;;;;;;2.13;90.37;101404.72;4175867;28;20434;-62
2022/12/25 06:35:10;;;;;;;;;;;;;;;2.12;90.41;101403.00;4171446;28;20020;-61
2022/12/25 06:37:12;;;;;;;;;;;;;;;2.12;90.62;101405.66;4170466;28;20112;-62
2022/12/25 06:39:14;;;;;;;;;;;;;;;2.15;90.98;101412.63;4169697;28;20015;-60
2022/12/25 06:41:17;;;;;;;;;;;;;;;2.14;90.82;101395.75;4177963;28;19960;-61
2022/12/25 06:43:19;;;;;;;;;;;;;;;2.17;91.09;101402.69;4170382;28;20023;-62
2022/12/25 06:45:21;;;;;;;;;;;;;;;2.25;91.99;101397.66;4169164;28;20020;-61
2022/12/25 06:47:23;;;;;;;;;;;;;;;2.35;92.05;101400.53;4170025;28;19921;-62
2022/12/25 06:49:25;;;;;;;;;;;;;;;2.32;91.48;101398.09;4170175;28;20016;-62
2022/12/25 06:51:29;;;;;;;;;;;;;;;2.28;91.32;101394.78;4171872;28;20454;-62
2022/12/25 06:53:32;;;;;;;;;;;;;;;2.32;91.75;101395.41;4171178;28;20363;-61
2022/12/25 06:55:34;;;;;;;;;;;;;;;2.32;91.78;101400.75;4170476;28;21009;-61
2022/12/25 06:57:35;;;;;;;;;;;;;;;2.30;91.47;101405.34;4169623;28;20020;-61
2022/12/25 06:59:37;;;;;;;;;;;;;;;2.30;91.78;101413.34;4167211;28;20015;-60
2022/12/25 07:01:41;;;;;;;;;;;;;;;2.27;91.48;101418.88;4184813;28;20019;-62
2022/12/25 07:03:43;;;;;;;;;;;;;;;2.24;91.40;101425.31;4169476;28;20019;-61
2022/12/25 07:05:46;;;;;;;;;;;;;;;2.23;91.47;101431.59;4168268;28;20375;-61
2022/12/25 07:07:49;;;;;;;;;;;;;;;2.20;91.56;101431.78;4170520;28;20364;-61
2022/12/25 07:09:51;;;;;;;;;;;;;;;2.14;90.98;101427.72;4169096;28;20023;-61
2022/12/25 07:11:53;;;;;;;;;;;;;;;2.11;91.20;101432.41;4170476;28;20015;-61
2022/12/25 07:13:55;;;;;;;;;;;;;;;2.05;91.14;101425.69;4168925;28;20377;-61
2022/12/25 07:15:57;;;;;;;;;;;;;;;2.08;91.84;101438.81;4175514;28;20004;-61
2022/12/25 07:17:59;;;;;;;;;;;;;;;2.13;92.51;101435.81;4172105;28;20023;-61
2022/12/25 07:20:01;;;;;;;;;;;;;;;2.14;92.72;101437.53;4170056;28;20008;-61
2022/12/25 07:22:02;;;;;;;;;;;;;;;2.16;92.91;101438.28;4169853;28;20569;-62
2022/12/25 07:24:06;;;;;;;;;;;;;;;2.19;93.24;101448.72;4169726;28;20442;-62
2022/12/25 07:26:09;;;;;;;;;;;;;;;2.22;93.67;101453.00;4168789;28;20475;-61
2022/12/25 07:28:11;;;;;;;;;;;;;;;2.25;93.83;101458.97;4169376;28;20581;-60
2022/12/25 07:30:13;;;;;;;;;;;;;;;2.26;94.21;101459.84;4184631;28;20019;-61
2022/12/25 07:32:15;;;;;;;;;;;;;;;2.29;94.30;101455.16;4170654;28;20056;-61
2022/12/25 07:34:17;;;;;;;;;;;;;;;2.34;94.56;101465.50;4169507;28;20027;-59
2022/12/25 07:36:20;;;;;;;;;;;;;;;2.35;94.79;101461.84;4169801;28;20011;-61
2022/12/25 07:38:22;;;;;;;;;;;;;;;2.37;94.87;101467.97;4170803;28;20020;-60
2022/12/25 07:40:25;;;;;;;;;;;;;;;2.38;94.67;101456.31;4170054;28;20011;-60
2022/12/25 07:42:27;;;;;;;;;;;;;;;2.37;94.73;101462.63;4170012;28;20480;-61
2022/12/25 07:44:29;;;;;;;;;;;;;;;2.37;94.78;101462.63;4170390;28;20568;-61
2022/12/25 07:46:31;;;;;;;;;;;;;;;2.39;94.89;101454.53;4168735;28;20011;-60
2022/12/25 07:48:33;;;;;;;;;;;;;;;2.37;94.95;101464.41;4170061;28;20031;-61
2022/12/25 07:50:35;;;;;;;;;;;;;;;2.37;94.99;101462.63;4168128;28;20474;-60
2022/12/25 07:52:37;;;;;;;;;;;;;;;2.37;95.28;101469.75;4169962;28;20011;-62
2022/12/25 07:54:42;;;;;;;;;;;;;;;2.35;95.38;101453.84;4169120;28;19927;-61
2022/12/25 07:56:47;;;;;;;;;;;;;;;2.39;95.89;101455.38;4168678;28;20024;-61
2022/12/25 07:58:49;;;;;;;;;;;;;;;2.43;95.79;101448.88;4170789;28;20035;-61
2022/12/25 08:00:51;;;;;;;;;;;;;;;2.46;95.70;101439.78;4169923;28;20028;-60
2022/12/25 08:02:53;;;;;;;;;;;;;;;2.51;95.88;101445.66;4169542;28;20008;-61
2022/12/25 08:04:55;;;;;;;;;;;;;;;2.56;96.02;101451.53;4168731;28;20011;-61
2022/12/25 08:06:57;;;;;;;;;;;;;;;2.58;95.60;101452.25;4169704;28;20015;-60
2022/12/25 08:09:03;;;;;;;;;;;;;;;2.61;95.70;101453.88;4170698;28;20024;-60
2022/12/25 08:11:06;;;;;;;;;;;;;;;2.62;95.14;101456.44;4168192;28;20019;-60
2022/12/25 08:13:09;;;;;;;;;;;;;;;2.63;95.03;101454.59;4167969;28;20020;-60
2022/12/25 08:15:12;;;;;;;;;;;;;;;2.61;94.70;101454.72;4167747;28;19979;-61
2022/12/25 08:17:14;;;;;;;;;;;;;;;2.60;94.90;101453.03;4169260;28;20362;-61
2022/12/25 08:19:16;;;;;;;;;;;;;;;2.57;94.37;101471.91;4169041;28;20016;-59
2022/12/25 08:21:18;;;;;;;;;;;;;;;2.55;94.42;101456.97;4169779;28;20025;-61
2022/12/25 08:23:20;;;;;;;;;;;;;;;2.53;94.29;101452.59;4169149;28;20012;-61
2022/12/25 08:25:22;;;;;;;;;;;;;;;2.55;94.77;101452.47;4170253;28;20019;-60
2022/12/25 08:27:24;;;;;;;;;;;;;;;2.65;95.33;101452.69;4174079;28;20015;-60
2022/12/25 08:29:28;;;;;;;;;;;;;;;2.70;95.08;101447.88;4173036;28;20032;-60
2022/12/25 08:31:32;;;;;;;;;;;;;;;2.73;94.77;101439.69;4172467;28;20570;-62
2022/12/25 08:33:34;;;;;;;;;;;;;;;2.70;94.31;101437.22;4173469;28;20369;-62
2022/12/25 08:35:36;;;;;;;;;;;;;;;2.70;94.74;101435.41;4171560;28;19975;-62
2022/12/25 08:37:38;;;;;;;;;;;;;;;2.77;95.08;101441.13;4173197;28;20015;-61
2022/12/25 08:39:40;;;;;;;;;;;;;;;2.81;95.27;101441.81;4171222;28;20645;-61
2022/12/25 08:41:42;;;;;;;;;;;;;;;2.86;95.08;101443.16;4171304;28;20016;-61
2022/12/25 08:43:44;;;;;;;;;;;;;;;2.94;95.05;101442.59;4170548;28;20008;-61
2022/12/25 08:45:47;;;;;;;;;;;;;;;2.99;95.34;101432.44;4170544;28;20023;-60
2022/12/25 08:47:53;;;;;;;;;;;;;;;3.05;95.36;101417.81;4173488;28;20011;-62
2022/12/25 08:49:55;;;;;;;;;;;;;;;3.11;95.17;101429.88;4178204;28;20435;-62
2022/12/25 08:51:57;;;;;;;;;;;;;;;3.11;94.76;101425.38;4171346;28;20019;-62
2022/12/25 08:54:00;;;;;;;;;;;;;;;3.14;94.96;101424.31;4170790;28;20015;-62
2022/12/25 08:56:03;;;;;;;;;;;;;;;3.14;95.02;101417.16;4169679;28;20019;-61
2022/12/25 08:58:05;;;;;;;;;;;;;;;3.17;94.89;101413.41;4171223;28;20507;-61
2022/12/25 09:00:08;;;;;;;;;;;;;;;3.21;95.43;101406.88;4171600;28;20059;-61
2022/12/25 09:02:12;;;;;;;;;;;;;;;3.29;95.56;101400.97;4171331;28;20008;-62
2022/12/25 09:04:14;;;;;;;;;;;;;;;3.36;95.30;101408.41;4170241;28;20048;-61
2022/12/25 09:06:16;;;;;;;;;;;;;;;3.38;94.48;101405.63;4178337;28;20015;-59
2022/12/25 09:08:19;;;;;;;;;;;;;;;3.38;94.13;101400.28;4171833;28;20019;-60
2022/12/25 09:10:21;;;;;;;;;;;;;;;3.39;94.04;101396.66;4169910;28;20016;-60
2022/12/25 09:12:22;;;;;;;;;;;;;;;3.43;94.06;101400.78;4170818;28;20430;-61
2022/12/25 09:14:24;;;;;;;;;;;;;;;3.44;93.48;101402.50;4170010;28;20016;-61
2022/12/25 09:16:26;;;;;;;;;;;;;;;3.43;93.08;101399.00;4171077;28;19925;-61
2022/12/25 09:18:30;;;;;;;;;;;;;;;3.47;93.33;101402.28;4170480;28;20004;-61
2022/12/25 09:20:32;;;;;;;;;;;;;;;3.49;92.99;101394.16;4169313;28;20020;-61
2022/12/25 09:22:34;;;;;;;;;;;;;;;3.50;92.92;101390.53;4171153;28;20015;-60
2022/12/25 09:24:38;;;;;;;;;;;;;;;3.51;92.67;101385.06;4169667;28;20019;-59
2022/12/25 09:26:40;;;;;;;;;;;;;;;3.53;92.70;101379.59;4170014;28;20020;-59
2022/12/25 09:28:41;;;;;;;;;;;;;;;3.55;92.51;101380.34;4170303;28;20016;-61
2022/12/25 09:30:43;;;;;;;;;;;;;;;3.57;92.99;101392.63;4169555;28;20007;-59
2022/12/25 09:32:45;;;;;;;;;;;;;;;3.61;92.70;101385.22;4170321;28;20015;-60
2022/12/25 09:34:49;;;;;;;;;;;;;;;3.63;92.70;101385.94;4168882;28;20010;-58
2022/12/25 09:36:51;;;;;;;;;;;;;;;3.67;92.78;101387.44;4168267;28;19929;-61
2022/12/25 09:38:53;;;;;;;;;;;;;;;3.70;92.86;101380.97;4169654;28;20012;-61
2022/12/25 09:40:58;;;;;;;;;;;;;;;3.73;92.84;101384.28;4186415;28;20008;-59
2022/12/25 09:43:00;;;;;;;;;;;;;;;3.78;93.02;101387.44;4170030;28;20015;-60
2022/12/25 09:45:03;;;;;;;;;;;;;;;3.82;92.80;101395.25;4169297;28;20015;-60
2022/12/25 09:47:06;;;;;;;;;;;;;;;3.84;92.82;101395.97;4170230;28;20019;-60
2022/12/25 09:49:13;;;;;;;;;;;;;;;3.85;92.66;101387.81;4170775;28;20012;-61
2022/12/25 09:51:16;;;;;;;;;;;;;;;3.85;92.38;101390.50;4168400;28;20488;-60
2022/12/25 09:53:19;;;;;;;;;;;;;;;3.86;92.32;101396.72;4170168;28;20047;-60
2022/12/25 09:55:21;;;;;;;;;;;;;;;3.84;92.18;101391.50;4169461;28;20008;-60
2022/12/25 09:57:24;;;;;;;;;;;;;;;3.82;92.04;101400.59;4170213;28;19944;-61
2022/12/25 09:59:26;;;;;;;;;;;;;;;3.81;92.12;101389.06;4169361;28;20389;-60
2022/12/25 10:01:29;;;;;;;;;;;;;;;3.78;92.32;101391.97;4169938;28;20020;-60
2022/12/25 10:03:35;;;;;;;;;;;;;;;3.72;92.30;101395.94;4169544;28;20016;-60
2022/12/25 10:05:49;;;;;;;;;;;;;;;3.71;92.07;101396.91;4169287;28;20020;-60
2022/12/25 10:07:54;;;;;;;;;;;;;;;3.71;92.10;101401.41;4170098;28;19960;-60
2022/12/25 10:09:59;;;;;;;;;;;;;;;3.72;92.67;101398.59;4169793;28;20356;-62
2022/12/25 10:12:05;;;;;;;;;;;;;;;3.76;92.72;101394.75;4169672;28;20038;-60
2022/12/25 10:14:10;;;;;;;;;;;;;;;3.79;92.63;101404.31;4169360;28;21319;-60
2022/12/25 10:16:15;;;;;;;;;;;;;;;3.83;92.99;101403.13;4168163;28;20347;-60
2022/12/25 10:18:32;;;;;;;;;;;;;;;3.81;92.53;101388.19;4153823;28;20016;-60
2022/12/25 10:20:38;;;;;;;;;;;;;;;3.84;92.65;101385.28;4113077;28;20023;-60
2022/12/25 10:22:40;;;;;;;;;;;;;;;3.84;92.47;101394.16;4152853;28;20020;-61
2022/12/25 10:24:44;;;;;;;;;;;;;;;3.87;92.63;101388.59;4156494;28;20024;-60
2022/12/25 10:26:46;;;;;;;;;;;;;;;3.89;92.69;101378.63;4169049;28;20012;-60
2022/12/25 10:28:49;;;;;;;;;;;;;;;3.92;92.68;101375.72;4169406;28;20023;-61
2022/12/25 10:30:51;;;;;;;;;;;;;;;3.93;92.88;101366.75;4168908;28;20015;-61
2022/12/25 10:32:53;;;;;;;;;;;;;;;3.96;92.58;101370.97;4169614;28;20442;-60
2022/12/25 10:34:55;;;;;;;;;;;;;;;3.96;92.77;101371.81;4168748;28;20019;-60
2022/12/25 10:36:58;;;;;;;;;;;;;;;3.95;92.81;101363.94;4169203;28;20056;-59
2022/12/25 10:39:00;;;;;;;;;;;;;;;3.98;92.77;101363.69;4169137;28;20001;-61
2022/12/25 10:41:08;;;;;;;;;;;;;;;4.00;93.08;101369.78;4169070;28;20007;-61
2022/12/25 10:43:11;;;;;;;;;;;;;;;3.99;93.30;101362.72;4170044;28;20110;-61
2022/12/25 10:45:13;;;;;;;;;;;;;;;4.01;93.57;101362.59;4168566;28;20023;-60
2022/12/25 10:47:15;;;;;;;;;;;;;;;4.04;93.93;101349.84;4168668;28;20015;-61
2022/12/25 10:49:17;;;;;;;;;;;;;;;4.08;94.05;101347.81;4167664;28;20801;-60
2022/12/25 10:51:29;;;;;;;;;;;;;;;4.09;93.88;101350.34;4169363;28;20019;-60
2022/12/25 10:53:37;;;;;;;;;;;;;;;4.14;93.83;101358.84;4170183;28;20012;-67
2022/12/25 10:55:39;;;;;;;;;;;;;;;4.19;93.82;101363.00;4169331;28;20021;-66
2022/12/25 10:57:45;;;;;;;;;;;;;;;4.20;93.76;101352.19;4169528;28;20019;-65
2022/12/25 10:59:48;;;;;;;;;;;;;;;4.23;93.88;101353.75;4168389;28;20425;-67
2022/12/25 11:01:50;;;;;;;;;;;;;;;4.24;93.96;101350.97;4169536;28;20008;-61
2022/12/25 11:03:52;;;;;;;;;;;;;;;4.26;93.91;101350.84;4169693;28;20367;-61
2022/12/25 11:05:54;;;;;;;;;;;;;;;4.28;93.72;101352.44;4168184;28;20311;-60
2022/12/25 11:07:57;;;;;;;;;;;;;;;4.30;93.89;101353.16;4170122;28;20407;-60
2022/12/25 11:10:00;;;;;;;;;;;;;;;4.30;94.25;101358.50;4175893;28;20016;-60
2022/12/25 11:12:02;;;;;;;;;;;;;;;4.31;94.18;101352.19;4169958;28;20047;-60
2022/12/25 11:14:05;;;;;;;;;;;;;;;4.32;94.44;101342.34;4168619;28;20421;-61
2022/12/25 11:16:09;;;;;;;;;;;;;;;4.33;94.63;101339.53;4168938;28;20438;-61
2022/12/25 11:18:18;;;;;;;;;;;;;;;4.36;94.45;101341.13;4169994;28;20020;-61
2022/12/25 11:20:20;;;;;;;;;;;;;;;4.40;94.50;101368.47;4168899;28;20050;-60
2022/12/25 11:22:22;;;;;;;;;;;;;;;4.41;94.49;101362.16;4170183;28;20423;-61
2022/12/25 11:24:26;;;;;;;;;;;;;;;4.43;95.06;101362.88;4168618;28;20051;-60
2022/12/25 11:26:28;;;;;;;;;;;;;;;4.45;95.05;101355.56;4169407;28;20015;-60
2022/12/25 11:28:31;;;;;;;;;;;;;;;4.46;95.29;101349.25;4170287;28;20470;-60
2022/12/25 11:30:34;;;;;;;;;;;;;;;4.48;95.28;101358.00;4169667;28;20019;-61
2022/12/25 11:32:37;;;;;;;;;;;;;;;4.50;95.17;101350.72;4168479;28;20020;-60
2022/12/25 11:34:41;;;;;;;;;;;;;;;4.52;95.18;101335.41;4169439;28;20020;-60
2022/12/25 11:36:44;;;;;;;;;;;;;;;4.55;95.14;101342.34;4169831;28;20015;-60
2022/12/25 11:38:46;;;;;;;;;;;;;;;4.56;95.09;101339.53;4170853;28;20023;-61
2022/12/25 11:40:49;;;;;;;;;;;;;;;4.57;94.85;101341.22;4169217;28;20299;-60
2022/12/25 11:42:51;;;;;;;;;;;;;;;4.58;94.94;101336.75;4169936;28;20005;-61
2022/12/25 11:44:55;;;;;;;;;;;;;;;4.60;94.79;101324.09;4168667;28;20028;-60
2022/12/25 11:46:59;;;;;;;;;;;;;;;4.61;94.90;101302.56;4169420;28;20027;-60
2022/12/25 11:49:01;;;;;;;;;;;;;;;4.63;94.91;101308.63;4170539;28;20007;-61
2022/12/25 11:51:03;;;;;;;;;;;;;;;4.64;94.58;101294.28;4169720;28;20458;-58
2022/12/25 11:53:06;;;;;;;;;;;;;;;4.66;94.92;101278.09;4170424;28;20027;-61
2022/12/25 11:55:14;;;;;;;;;;;;;;;4.66;94.78;101264.72;4169191;28;20429;-60
2022/12/25 11:57:16;;;;;;;;;;;;;;;4.67;95.05;101264.59;4170115;28;20446;-61
2022/12/25 11:59:20;;;;;;;;;;;;;;;4.69;94.91;101249.25;4169107;28;20015;-61
2022/12/25 12:01:25;;;;;;;;;;;;;;;4.71;95.11;101240.25;4171997;28;20795;-59
2022/12/25 12:03:29;;;;;;;;;;;;;;;4.72;94.62;101236.59;4174525;28;20020;-61
2022/12/25 12:05:34;;;;;;;;;;;;;;;4.75;95.05;101239.00;4170196;28;20019;-61
2022/12/25 12:07:36;;;;;;;;;;;;;;;4.76;95.00;101243.41;4171703;28;20019;-61
2022/12/25 12:09:39;;;;;;;;;;;;;;;4.77;94.81;101239.75;4172373;28;20359;-60
2022/12/25 12:11:43;;;;;;;;;;;;;;;4.78;95.14;101246.78;4172293;28;20011;-60
2022/12/25 12:13:50;;;;;;;;;;;;;;;4.79;94.84;101252.00;4170389;28;20012;-61